createdAt,value
2023-05-21T00:01:17.022Z,90.29
2023-05-21T00:04:32.030Z,90.08
2023-05-21T00:07:40.618Z,90.50
2023-05-21T00:10:55.025Z,90.44
2023-05-21T00:14:04.057Z,90.03
2023-05-21T00:17:19.103Z,90.09
2023-05-21T00:20:21.105Z,90.83
2023-05-21T00:23:36.033Z,90.41
2023-05-21T00:26:51.024Z,90.97
2023-05-21T00:30:06.036Z,91.21
2023-05-21T00:33:14.557Z,90.98
2023-05-21T00:36:23.035Z,91.09
2023-05-21T00:39:44.985Z,91.28
2023-05-21T00:43:03.060Z,91.47
2023-05-21T00:46:15.248Z,91.53
2023-05-21T00:49:24.010Z,92.08
2023-05-21T00:52:38.990Z,91.98
2023-05-21T00:55:47.644Z,91.06
2023-05-21T00:59:02.996Z,91.51
2023-05-21T01:02:18.068Z,91.68
2023-05-21T01:05:20.193Z,92.54
2023-05-21T01:08:36.019Z,92.12
2023-05-21T01:11:53.985Z,91.81
2023-05-21T01:14:56.563Z,92.09
2023-05-21T01:18:11.040Z,92.35
2023-05-21T01:21:24.976Z,92.16
2023-05-21T01:24:40.998Z,92.64
2023-05-21T01:27:49.046Z,92.40
2023-05-21T01:31:09.003Z,93.01
2023-05-21T01:34:22.039Z,92.85
2023-05-21T01:37:48.019Z,93.00
2023-05-21T01:41:17.020Z,93.30
2023-05-21T01:44:26.049Z,92.96
2023-05-21T01:47:43.040Z,93.20
2023-05-21T01:51:00.008Z,93.33
2023-05-21T01:54:15.011Z,93.33
2023-05-21T01:57:17.862Z,93.59
2023-05-21T02:00:34.039Z,94.12
2023-05-21T02:03:42.716Z,93.63
2023-05-21T02:06:51.051Z,93.91
2023-05-21T02:10:06.004Z,94.10
2023-05-21T02:13:08.122Z,94.81
2023-05-21T02:16:23.081Z,94.50
2023-05-21T02:19:31.677Z,95.05
2023-05-21T02:22:40.026Z,95.73
2023-05-21T02:25:48.682Z,94.80
2023-05-21T02:29:04.029Z,94.66
2023-05-21T02:32:19.016Z,94.80
2023-05-21T02:35:34.263Z,94.53
2023-05-21T02:38:43.028Z,94.78
2023-05-21T02:41:58.254Z,95.17
2023-05-21T02:45:07.055Z,95.28
2023-05-21T02:48:15.539Z,94.83
2023-05-21T02:51:24.046Z,94.96
2023-05-21T02:54:39.026Z,94.83
2023-05-21T02:57:48.308Z,94.66
2023-05-21T03:01:03.038Z,94.96
2023-05-21T03:04:18.039Z,95.13
2023-05-21T03:07:20.151Z,95.00
2023-05-21T03:10:35.062Z,94.27
2023-05-21T03:13:36.930Z,94.74
2023-05-21T03:16:59.109Z,94.10
2023-05-21T03:20:01.038Z,94.44
2023-05-21T03:23:16.867Z,93.75
2023-05-21T03:26:26.434Z,93.95
2023-05-21T03:29:35.048Z,94.62
2023-05-21T03:32:43.776Z,93.19
2023-05-21T03:35:59.039Z,93.73
2023-05-21T03:39:07.033Z,93.51
2023-05-21T03:42:29.043Z,94.33
2023-05-21T03:45:37.988Z,93.71
2023-05-21T03:48:47.032Z,92.17
2023-05-21T03:52:02.046Z,91.38
2023-05-21T03:55:17.041Z,91.37
2023-05-21T03:58:25.068Z,91.44
2023-05-21T04:01:33.652Z,91.45
2023-05-21T04:04:48.225Z,91.07
2023-05-21T04:07:50.175Z,91.08
2023-05-21T04:11:05.059Z,91.73
2023-05-21T04:14:14.051Z,91.10
2023-05-21T04:17:22.699Z,90.05
2023-05-21T04:20:31.026Z,90.67
2023-05-21T04:23:39.789Z,88.91
2023-05-21T04:26:48.080Z,88.85
2023-05-21T04:30:11.048Z,89.03
2023-05-21T04:33:13.399Z,87.47
2023-05-21T04:36:28.050Z,89.24
2023-05-21T04:39:30.511Z,90.90
2023-05-21T04:42:45.108Z,89.49
2023-05-21T04:45:53.039Z,87.87
2023-05-21T04:49:09.065Z,87.87
2023-05-21T04:52:17.658Z,88.20
2023-05-21T04:55:26.068Z,86.02
2023-05-21T04:58:41.040Z,84.66
2023-05-21T05:01:49.610Z,83.83
2023-05-21T05:04:58.052Z,84.02
2023-05-21T05:08:06.688Z,84.31
2023-05-21T05:11:15.058Z,83.01
2023-05-21T05:14:30.097Z,82.96
2023-05-21T05:17:32.025Z,81.15
2023-05-21T05:20:47.081Z,82.13
2023-05-21T05:23:55.082Z,80.73
2023-05-21T05:27:10.115Z,80.79
2023-05-21T05:30:18.680Z,80.16
2023-05-21T05:33:27.065Z,79.74
2023-05-21T05:36:42.053Z,79.33
2023-05-21T05:39:43.950Z,79.56
2023-05-21T05:43:06.044Z,79.30
2023-05-21T05:46:14.129Z,79.37
2023-05-21T05:49:22.715Z,80.87
2023-05-21T05:52:38.082Z,79.41
2023-05-21T05:55:53.072Z,77.85
2023-05-21T05:59:02.087Z,77.48
2023-05-21T06:02:10.691Z,77.46
2023-05-21T06:05:19.106Z,77.47
2023-05-21T06:08:35.457Z,76.55
2023-05-21T06:11:38.838Z,77.56
2023-05-21T06:14:54.054Z,76.67
2023-05-21T06:18:02.116Z,76.54
2023-05-21T06:21:10.658Z,75.38
2023-05-21T06:24:25.056Z,75.85
2023-05-21T06:27:33.066Z,74.42
2023-05-21T06:30:48.052Z,74.49
2023-05-21T06:33:56.885Z,73.36
2023-05-21T06:37:12.043Z,71.85
2023-05-21T06:40:13.889Z,74.36
2023-05-21T06:43:36.053Z,71.74
2023-05-21T06:46:45.062Z,71.43
2023-05-21T06:50:00.096Z,72.15
2023-05-21T06:53:02.119Z,70.94
2023-05-21T06:56:17.084Z,69.54
2023-05-21T06:59:19.006Z,69.54
2023-05-21T07:02:34.162Z,68.53
2023-05-21T07:05:49.088Z,69.40
2023-05-21T07:08:57.104Z,67.67
2023-05-21T07:12:12.085Z,67.48
2023-05-21T07:15:20.747Z,66.93
2023-05-21T07:18:36.079Z,66.62
2023-05-21T07:21:51.087Z,65.16
2023-05-21T07:24:59.671Z,64.44
2023-05-21T07:28:08.060Z,63.50
2023-05-21T07:31:16.691Z,62.54
2023-05-21T07:34:32.091Z,61.13
2023-05-21T07:37:34.050Z,63.74
2023-05-21T07:40:56.069Z,61.44
2023-05-21T07:44:11.073Z,62.68
2023-05-21T07:47:19.094Z,61.50
2023-05-21T07:50:34.140Z,60.01
2023-05-21T07:53:35.958Z,61.17
2023-05-21T07:56:51.107Z,59.87
2023-05-21T07:59:59.104Z,58.46
2023-05-21T08:03:07.781Z,59.74
2023-05-21T08:06:23.105Z,58.84
2023-05-21T08:09:32.109Z,58.31
2023-05-21T08:12:40.658Z,58.68
2023-05-21T08:15:51.312Z,58.15
2023-05-21T08:19:01.767Z,58.14
2023-05-21T08:22:10.114Z,56.96
2023-05-21T08:25:25.110Z,57.17
2023-05-21T08:28:40.083Z,57.37
2023-05-21T08:31:55.157Z,57.02
2023-05-21T08:34:57.053Z,57.17
2023-05-21T08:38:12.108Z,57.42
2023-05-21T08:41:21.639Z,57.18
2023-05-21T08:44:40.104Z,57.51
2023-05-21T08:47:50.267Z,54.22
2023-05-21T08:50:59.687Z,54.35
2023-05-21T08:54:14.107Z,54.74
2023-05-21T08:57:17.370Z,55.03
2023-05-21T09:00:32.100Z,52.84
2023-05-21T09:03:41.201Z,52.21
2023-05-21T09:06:50.236Z,50.78
2023-05-21T09:10:11.111Z,52.27
2023-05-21T09:13:21.051Z,51.40
2023-05-21T09:16:36.154Z,50.93
2023-05-21T09:19:45.112Z,52.28
2023-05-21T09:23:01.118Z,51.98
2023-05-21T09:26:19.117Z,51.16
2023-05-21T09:29:34.180Z,50.49
2023-05-21T09:32:43.768Z,52.35
2023-05-21T09:35:52.128Z,48.63
2023-05-21T09:39:00.695Z,47.98
2023-05-21T09:42:16.126Z,47.57
2023-05-21T09:45:34.363Z,47.43
2023-05-21T09:48:50.204Z,48.52
2023-05-21T09:51:56.290Z,48.10
2023-05-21T09:55:18.148Z,49.02
2023-05-21T09:58:29.130Z,46.39
2023-05-21T10:01:38.435Z,47.52
2023-05-21T10:04:57.137Z,46.78
2023-05-21T10:08:09.223Z,47.04
2023-05-21T10:11:26.144Z,46.58
2023-05-21T10:14:42.144Z,47.85
2023-05-21T10:17:52.857Z,45.92
2023-05-21T10:21:09.132Z,45.13
2023-05-21T10:24:18.394Z,45.28
2023-05-21T10:27:36.175Z,44.16
2023-05-21T10:30:45.887Z,46.17
2023-05-21T10:33:55.141Z,42.52
2023-05-21T10:37:14.159Z,41.95
2023-05-21T10:40:29.160Z,42.56
2023-05-21T10:43:52.159Z,41.82
2023-05-21T10:47:12.589Z,41.99
2023-05-21T10:50:36.319Z,45.31
2023-05-21T10:54:26.249Z,44.06
2023-05-21T10:58:04.135Z,44.58
2023-05-21T11:01:07.853Z,44.97
2023-05-21T11:04:23.162Z,45.49
2023-05-21T11:07:52.299Z,44.99
2023-05-21T11:11:07.138Z,45.10
2023-05-21T11:14:47.463Z,44.92
2023-05-21T11:17:57.116Z,42.46
2023-05-21T11:21:13.170Z,41.87
2023-05-21T11:24:28.185Z,42.10
2023-05-21T11:27:45.186Z,43.09
2023-05-21T11:31:32.464Z,41.13
2023-05-21T11:34:48.320Z,43.40
2023-05-21T11:38:03.164Z,44.11
2023-05-21T11:41:11.173Z,42.62
2023-05-21T11:44:44.172Z,43.37
2023-05-21T11:47:52.933Z,43.64
2023-05-21T11:51:09.178Z,41.92
2023-05-21T11:54:18.541Z,42.79
2023-05-21T11:57:35.189Z,41.38
2023-05-21T12:00:40.639Z,43.11
2023-05-21T12:03:55.211Z,43.90
2023-05-21T12:07:11.174Z,42.64
2023-05-21T12:10:13.387Z,42.55
2023-05-21T12:13:28.201Z,45.63
2023-05-21T12:16:31.123Z,43.65
2023-05-21T12:19:46.181Z,42.02
2023-05-21T12:22:57.226Z,42.95
2023-05-21T12:26:06.100Z,43.42
2023-05-21T12:29:14.175Z,41.90
2023-05-21T12:32:22.801Z,41.59
2023-05-21T12:35:37.196Z,41.46
2023-05-21T12:38:45.211Z,42.32
2023-05-21T12:42:02.229Z,41.79
2023-05-21T12:45:15.198Z,41.61
2023-05-21T12:48:23.911Z,40.74
2023-05-21T12:51:32.227Z,39.68
2023-05-21T12:54:42.624Z,40.90
2023-05-21T12:57:57.208Z,41.17
2023-05-21T13:00:59.284Z,42.75
2023-05-21T13:04:14.228Z,40.83
2023-05-21T13:07:25.178Z,40.16
2023-05-21T13:10:33.846Z,38.83
2023-05-21T13:13:49.208Z,38.06
2023-05-21T13:17:04.201Z,38.68
2023-05-21T13:20:19.307Z,42.41
2023-05-21T13:23:34.277Z,39.51
2023-05-21T13:26:36.153Z,42.44
2023-05-21T13:29:51.257Z,41.46
2023-05-21T13:32:53.294Z,42.91
2023-05-21T13:36:08.224Z,42.25
2023-05-21T13:39:16.757Z,41.55
2023-05-21T13:42:32.261Z,40.37
2023-05-21T13:45:48.570Z,41.37
2023-05-21T13:49:04.235Z,41.81
2023-05-21T13:52:14.216Z,42.74
2023-05-21T13:55:22.964Z,43.46
2023-05-21T13:58:31.204Z,41.45
2023-05-21T14:01:46.297Z,41.21
2023-05-21T14:05:01.244Z,41.60
2023-05-21T14:08:16.235Z,41.74
2023-05-21T14:11:18.148Z,41.93
2023-05-21T14:14:33.279Z,42.35
2023-05-21T14:17:35.289Z,39.95
2023-05-21T14:20:50.220Z,40.71
2023-05-21T14:23:58.821Z,41.92
2023-05-21T14:27:15.269Z,41.18
2023-05-21T14:30:24.215Z,42.84
2023-05-21T14:33:33.503Z,42.75
2023-05-21T14:36:42.244Z,43.13
2023-05-21T14:40:04.258Z,43.14
2023-05-21T14:43:19.245Z,44.22
2023-05-21T14:46:34.418Z,42.53
2023-05-21T14:49:43.239Z,42.53
2023-05-21T14:52:51.757Z,42.99
2023-05-21T14:56:00.227Z,42.73
2023-05-21T14:59:15.236Z,42.48
2023-05-21T15:02:23.795Z,41.95
2023-05-21T15:05:33.244Z,42.64
2023-05-21T15:08:42.203Z,43.14
2023-05-21T15:11:57.336Z,44.92
2023-05-21T15:15:06.254Z,43.39
2023-05-21T15:18:21.222Z,42.99
2023-05-21T15:21:36.246Z,40.69
2023-05-21T15:24:38.136Z,41.63
2023-05-21T15:27:53.261Z,42.85
2023-05-21T15:30:55.079Z,43.37
2023-05-21T15:34:10.630Z,43.84
2023-05-21T15:37:12.664Z,42.88
2023-05-21T15:40:27.450Z,43.33
2023-05-21T15:43:49.243Z,43.08
2023-05-21T15:46:58.399Z,41.62
2023-05-21T15:50:16.231Z,42.58
2023-05-21T15:53:24.883Z,42.53
2023-05-21T15:56:39.269Z,44.36
2023-05-21T15:59:47.869Z,43.63
2023-05-21T16:02:56.336Z,45.46
2023-05-21T16:06:04.795Z,43.99
2023-05-21T16:09:19.254Z,45.43
2023-05-21T16:12:27.266Z,43.70
2023-05-21T16:15:36.129Z,44.44
2023-05-21T16:18:51.381Z,43.36
2023-05-21T16:22:00.562Z,42.83
2023-05-21T16:25:09.277Z,44.73
2023-05-21T16:28:17.806Z,45.57
2023-05-21T16:31:32.297Z,45.44
2023-05-21T16:34:40.245Z,44.54
2023-05-21T16:37:48.844Z,45.68
2023-05-21T16:40:57.285Z,46.37
2023-05-21T16:44:12.547Z,45.85
2023-05-21T16:47:27.290Z,46.36
2023-05-21T16:50:29.199Z,47.49
2023-05-21T16:53:44.292Z,47.33
2023-05-21T16:56:52.296Z,47.76
2023-05-21T17:00:07.272Z,48.41
2023-05-21T17:03:09.490Z,48.24
2023-05-21T17:06:24.297Z,48.09
2023-05-21T17:09:32.891Z,47.03
2023-05-21T17:12:41.287Z,48.24
2023-05-21T17:15:51.164Z,48.82
2023-05-21T17:19:00.330Z,48.80
2023-05-21T17:22:15.286Z,49.03
2023-05-21T17:25:31.116Z,50.70
2023-05-21T17:28:34.213Z,49.84
2023-05-21T17:31:49.319Z,49.84
2023-05-21T17:34:51.283Z,52.22
2023-05-21T17:38:06.271Z,53.46
2023-05-21T17:41:08.145Z,54.64
2023-05-21T17:44:30.299Z,53.79
2023-05-21T17:47:32.277Z,54.67
2023-05-21T17:50:47.294Z,53.60
2023-05-21T17:53:49.170Z,54.68
2023-05-21T17:57:04.307Z,54.50
2023-05-21T18:00:13.318Z,55.22
2023-05-21T18:03:22.321Z,55.68
2023-05-21T18:06:38.269Z,56.26
2023-05-21T18:09:53.326Z,58.10
2023-05-21T18:13:01.876Z,57.82
2023-05-21T18:16:10.335Z,59.25
2023-05-21T18:19:19.359Z,59.71
2023-05-21T18:22:28.284Z,60.71
2023-05-21T18:25:37.818Z,62.14
2023-05-21T18:28:53.325Z,62.36
2023-05-21T18:32:02.367Z,63.55
2023-05-21T18:35:13.148Z,64.85
2023-05-21T18:38:31.310Z,65.67
2023-05-21T18:41:47.334Z,66.82
2023-05-21T18:45:03.349Z,67.98
2023-05-21T18:48:12.796Z,68.46
2023-05-21T18:51:28.310Z,69.03
2023-05-21T18:54:31.150Z,70.52
2023-05-21T18:57:47.295Z,69.22
2023-05-21T19:00:56.760Z,70.17
2023-05-21T19:04:06.349Z,71.10
2023-05-21T19:07:15.957Z,72.58
2023-05-21T19:10:32.545Z,74.01
2023-05-21T19:13:41.797Z,74.33
2023-05-21T19:16:52.692Z,75.67
2023-05-21T19:20:10.335Z,75.60
2023-05-21T19:23:13.275Z,76.56
2023-05-21T19:26:29.317Z,76.31
2023-05-21T19:29:38.821Z,77.37
2023-05-21T19:32:48.360Z,77.47
2023-05-21T19:35:58.982Z,78.30
2023-05-21T19:39:08.314Z,78.97
2023-05-21T19:42:24.705Z,79.61
2023-05-21T19:45:34.350Z,79.63
2023-05-21T19:48:50.365Z,80.63
2023-05-21T19:51:59.985Z,81.16
2023-05-21T19:55:09.338Z,81.64
2023-05-21T19:58:25.348Z,81.38
2023-05-21T20:01:30.353Z,80.73
2023-05-21T20:04:46.339Z,81.36
2023-05-21T20:07:55.658Z,82.85
2023-05-21T20:11:17.324Z,82.91
2023-05-21T20:14:19.323Z,83.45
2023-05-21T20:17:34.374Z,84.40
2023-05-21T20:20:50.365Z,84.36
2023-05-21T20:23:53.280Z,85.44
2023-05-21T20:27:08.337Z,85.68
2023-05-21T20:30:17.305Z,85.29
2023-05-21T20:33:34.334Z,85.45
2023-05-21T20:36:43.378Z,86.25
2023-05-21T20:39:52.891Z,86.96
2023-05-21T20:43:01.319Z,87.22
2023-05-21T20:46:09.933Z,87.54
2023-05-21T20:49:24.378Z,85.71
2023-05-21T20:52:26.470Z,86.35
2023-05-21T20:55:41.315Z,85.41
2023-05-21T20:58:49.327Z,79.98
2023-05-21T21:01:57.933Z,78.70
2023-05-21T21:05:12.332Z,76.86
2023-05-21T21:08:20.320Z,78.21
2023-05-21T21:11:28.997Z,78.36
2023-05-21T21:14:43.304Z,77.03
2023-05-21T21:17:58.383Z,76.58
2023-05-21T21:21:06.953Z,77.02
2023-05-21T21:24:21.358Z,76.96
2023-05-21T21:27:36.343Z,76.99
2023-05-21T21:30:44.952Z,76.77
2023-05-21T21:33:59.385Z,77.43
2023-05-21T21:37:07.367Z,77.96
2023-05-21T21:40:15.995Z,77.99
2023-05-21T21:43:31.372Z,77.86
2023-05-21T21:46:46.332Z,77.24
2023-05-21T21:49:54.348Z,77.38
2023-05-21T21:53:09.340Z,77.67
2023-05-21T21:56:17.971Z,78.21
2023-05-21T21:59:33.344Z,78.12
2023-05-21T22:02:41.384Z,78.47
2023-05-21T22:05:56.355Z,78.80
2023-05-21T22:09:04.437Z,79.12
2023-05-21T22:12:13.334Z,80.25
2023-05-21T22:15:27.380Z,80.73
2023-05-21T22:18:42.360Z,82.19
2023-05-21T22:21:51.017Z,83.01
2023-05-21T22:25:00.366Z,84.17
2023-05-21T22:28:08.904Z,84.72
2023-05-21T22:31:17.401Z,83.70
2023-05-21T22:34:26.035Z,85.19
2023-05-21T22:37:35.360Z,83.59
2023-05-21T22:40:50.349Z,83.75
2023-05-21T22:44:12.365Z,82.93
2023-05-21T22:47:27.400Z,83.48
2023-05-21T22:50:35.360Z,81.83
2023-05-21T22:53:50.378Z,83.33
2023-05-21T22:57:06.450Z,84.49
2023-05-21T23:00:21.360Z,84.92
2023-05-21T23:03:36.381Z,84.93
2023-05-21T23:06:38.272Z,85.32
2023-05-21T23:09:53.385Z,86.81
2023-05-21T23:13:02.026Z,86.20
2023-05-21T23:16:10.435Z,87.60
2023-05-21T23:19:25.446Z,87.75
2023-05-21T23:22:40.373Z,87.97
2023-05-21T23:25:55.364Z,88.62
2023-05-21T23:28:57.643Z,89.37
2023-05-21T23:32:12.361Z,89.15
2023-05-21T23:35:27.388Z,89.66
2023-05-21T23:38:29.316Z,89.83
2023-05-21T23:41:44.390Z,89.48
2023-05-21T23:44:59.660Z,90.65
2023-05-21T23:48:14.397Z,89.48
2023-05-21T23:51:16.411Z,86.01
2023-05-21T23:54:31.365Z,86.10
2023-05-21T23:57:46.355Z,87.35
